ROMMA est une association bénévole à but non lucratif. Votre soutien est indispensable : ADHERER à ROMMA ou FAIRE un DON

Montélimar - (26, Drôme)

Basse vallée du Rhône (88 m)   Longitude: 04° 45' E   Latitude: 44° 32' N Station partenaire n°164
 

Détail journalier du     <<     >>

Température Precipitation Humidité Pression Vent Dir Rafale Dir. rafale Ensol.
Heure (°C) (mm) (%) (hPa) (km/h) (km/h) (min)
01:00 19.604710253NE19ENE0
02:00 19.104910257N29NE0
03:00 18.6052102512N29NNE0
04:00 18.6052102516N39NO0
05:00 18.0054102519N42NE0
06:00 17.4056102511N32NNE0
07:00 17.9054102612N34NNE0
08:00 17.5056102612N34NNE5
09:00 18.6053102717NE42ENE60
10:00 20.3048102820NE48NE60
11:00 22.3044102817NE45NE60
12:00 24.0040102917NE47NE60
13:00 25.2039102819N47E60
14:00 25.9040102819NNO42NNO53
15:00 27.6034102717N35NNO53
16:00 28.0034102715NE34NE60
17:00 28.7032102715NE35NE60
18:00 28.4033102615NE32NE51
19:00 27.7034102716N34NNO7
20:00 26.3036102710N32NNO0
21:00 25.1039102710NE26NE0
22:00 24.1042102712NE27NE0
23:00 23.5044102711NE27NE0
minuit 22.8046102713NE31ENE0

Graphique du 12-09-2019

 

Serveur OMMA